createdAt,value
2019-06-10T00:02:43.356Z,19.53
2019-06-10T00:05:35.147Z,19.35
2019-06-10T00:08:26.786Z,19.28
2019-06-10T00:11:21.265Z,19.22
2019-06-10T00:14:12.682Z,19.24
2019-06-10T00:17:05.073Z,19.31
2019-06-10T00:19:59.269Z,19.12
2019-06-10T00:22:51.746Z,19.21
2019-06-10T00:25:43.742Z,19.21
2019-06-10T00:28:35.913Z,19.11
2019-06-10T00:31:27.941Z,19.11
2019-06-10T00:34:20.898Z,19.14
2019-06-10T00:37:14.879Z,19.14
2019-06-10T00:40:08.947Z,19.06
2019-06-10T00:43:02.640Z,19.06
2019-06-10T00:45:54.903Z,19.07
2019-06-10T00:48:47.267Z,18.94
2019-06-10T00:51:41.317Z,18.89
2019-06-10T00:54:33.474Z,18.94
2019-06-10T00:57:25.260Z,19.01
2019-06-10T01:00:25.347Z,19.01
2019-06-10T01:03:13.443Z,18.95
2019-06-10T01:06:04.757Z,18.92
2019-06-10T01:08:56.823Z,18.92
2019-06-10T01:11:48.853Z,18.79
2019-06-10T01:14:41.206Z,18.84
2019-06-10T01:17:33.715Z,18.88
2019-06-10T01:20:25.865Z,18.75
2019-06-10T01:23:17.872Z,18.70
2019-06-10T01:26:12.954Z,18.70
2019-06-10T01:29:03.981Z,18.72
2019-06-10T01:31:55.978Z,18.72
2019-06-10T01:34:47.737Z,18.72
2019-06-10T01:37:41.393Z,18.71
2019-06-10T01:40:33.647Z,18.77
2019-06-10T01:43:25.818Z,18.77
2019-06-10T01:46:17.976Z,18.63
2019-06-10T01:49:12.018Z,18.65
2019-06-10T01:52:03.900Z,18.65
2019-06-10T01:54:56.026Z,18.71
2019-06-10T01:57:47.876Z,18.83
2019-06-10T02:00:41.748Z,18.83
2019-06-10T02:03:34.193Z,18.59
2019-06-10T02:06:26.143Z,18.66
2019-06-10T02:09:18.819Z,18.57
2019-06-10T02:12:12.748Z,18.57
2019-06-10T02:15:09.429Z,18.44
2019-06-10T02:18:02.081Z,18.44
2019-06-10T02:20:54.265Z,18.43
2019-06-10T02:23:46.251Z,18.54
2019-06-10T02:26:38.337Z,18.51
2019-06-10T02:29:30.892Z,18.56
2019-06-10T02:32:31.773Z,18.55
2019-06-10T02:35:27.234Z,18.49
2019-06-10T02:38:16.864Z,18.50
2019-06-10T02:41:05.106Z,18.46
2019-06-10T02:43:56.992Z,18.44
2019-06-10T02:46:49.064Z,18.42
2019-06-10T02:49:56.372Z,18.42
2019-06-10T02:52:38.358Z,18.40
2019-06-10T02:55:31.841Z,18.27
2019-06-10T02:58:30.386Z,18.23
2019-06-10T03:01:19.892Z,18.23
2019-06-10T03:04:13.700Z,18.28
2019-06-10T03:07:05.379Z,18.28
2019-06-10T03:09:57.494Z,18.28
2019-06-10T03:12:49.253Z,18.20
2019-06-10T03:15:42.671Z,18.26
2019-06-10T03:18:34.740Z,18.31
2019-06-10T03:21:26.499Z,18.31
2019-06-10T03:24:19.124Z,18.30
2019-06-10T03:27:12.646Z,18.29
2019-06-10T03:30:15.406Z,18.29
2019-06-10T03:33:00.373Z,18.19
2019-06-10T03:35:52.695Z,18.22
2019-06-10T03:38:44.621Z,18.06
2019-06-10T03:41:36.450Z,18.19
2019-06-10T03:44:28.519Z,18.20
2019-06-10T03:47:21.819Z,18.21
2019-06-10T03:50:14.109Z,18.16
2019-06-10T03:53:06.179Z,18.20
2019-06-10T03:55:58.294Z,18.23
2019-06-10T03:58:51.998Z,18.17
2019-06-10T04:01:44.423Z,18.12
2019-06-10T04:04:36.250Z,18.21
2019-06-10T04:07:30.978Z,18.16
2019-06-10T04:10:24.427Z,18.18
2019-06-10T04:13:15.621Z,18.18
2019-06-10T04:16:07.683Z,18.18
2019-06-10T04:18:59.684Z,18.23
2019-06-10T04:21:53.255Z,18.29
2019-06-10T04:24:45.439Z,18.32
2019-06-10T04:27:37.355Z,18.34
2019-06-10T04:30:29.609Z,18.34
2019-06-10T04:33:23.291Z,18.32
2019-06-10T04:36:16.131Z,18.32
2019-06-10T04:39:08.301Z,18.31
2019-06-10T04:42:02.446Z,18.40
2019-06-10T04:44:54.431Z,18.41
2019-06-10T04:47:46.115Z,18.49
2019-06-10T04:50:43.774Z,18.53
2019-06-10T04:53:32.869Z,18.53
2019-06-10T04:56:27.393Z,18.44
2019-06-10T04:59:19.379Z,18.57
2019-06-10T05:02:12.780Z,18.60
2019-06-10T05:05:04.692Z,18.60
2019-06-10T05:07:56.495Z,18.65
2019-06-10T05:10:48.261Z,18.59
2019-06-10T05:13:42.628Z,18.66
2019-06-10T05:16:35.930Z,18.66
2019-06-10T05:19:29.495Z,18.72
2019-06-10T05:22:24.250Z,18.85
2019-06-10T05:25:16.472Z,18.84
2019-06-10T05:28:08.390Z,18.84
2019-06-10T05:31:02.522Z,18.80
2019-06-10T05:33:54.505Z,18.83
2019-06-10T05:36:46.537Z,18.89
2019-06-10T05:39:38.776Z,18.85
2019-06-10T05:42:33.600Z,18.97
2019-06-10T05:45:27.391Z,19.01
2019-06-10T05:48:19.074Z,19.01
2019-06-10T05:51:12.370Z,19.03
2019-06-10T05:54:04.643Z,19.13
2019-06-10T05:56:56.598Z,19.12
2019-06-10T05:59:48.402Z,19.10
2019-06-10T06:02:43.107Z,19.18
2019-06-10T06:05:37.621Z,19.14
2019-06-10T06:08:29.143Z,19.14
2019-06-10T06:11:23.193Z,19.24
2019-06-10T06:14:15.605Z,19.24
2019-06-10T06:17:07.617Z,19.11
2019-06-10T06:19:59.697Z,19.24
2019-06-10T06:22:52.296Z,19.37
2019-06-10T06:25:46.986Z,19.37
2019-06-10T06:28:38.293Z,19.51
2019-06-10T06:31:32.893Z,19.60
2019-06-10T06:34:23.819Z,19.41
2019-06-10T06:37:15.930Z,19.41
2019-06-10T06:40:08.097Z,19.56
2019-06-10T06:42:59.909Z,19.51
2019-06-10T06:45:53.168Z,19.73
2019-06-10T06:48:45.427Z,19.86
2019-06-10T06:51:49.558Z,19.87
2019-06-10T06:54:33.401Z,19.83
2019-06-10T06:57:25.341Z,19.95
2019-06-10T07:00:41.063Z,19.93
2019-06-10T07:03:13.408Z,19.92
2019-06-10T07:06:05.197Z,19.93
2019-06-10T07:09:04.247Z,20.03
2019-06-10T07:11:52.855Z,20.03
2019-06-10T07:14:45.007Z,20.16
2019-06-10T07:17:38.763Z,20.16
2019-06-10T07:20:33.261Z,20.02
2019-06-10T07:23:25.008Z,20.27
2019-06-10T07:26:17.358Z,20.27
2019-06-10T07:29:09.373Z,20.30
2019-06-10T07:32:03.432Z,20.30
2019-06-10T07:34:55.370Z,20.34
2019-06-10T07:37:47.304Z,20.19
2019-06-10T07:40:39.537Z,20.16
2019-06-10T07:43:32.823Z,20.16
2019-06-10T07:46:25.298Z,20.12
2019-06-10T07:49:17.333Z,20.22
2019-06-10T07:52:15.533Z,20.22
2019-06-10T07:55:05.436Z,20.24
2019-06-10T07:57:57.075Z,20.37
2019-06-10T08:00:49.287Z,20.38
2019-06-10T08:03:42.551Z,20.38
2019-06-10T08:06:36.329Z,20.44
2019-06-10T08:09:28.395Z,20.44
2019-06-10T08:12:20.268Z,20.38
2019-06-10T08:15:13.351Z,20.38
2019-06-10T08:18:05.201Z,20.42
2019-06-10T08:20:57.016Z,20.28
2019-06-10T08:23:49.325Z,20.52
2019-06-10T08:26:43.693Z,20.51
2019-06-10T08:29:34.700Z,20.50
2019-06-10T08:32:26.570Z,20.60
2019-06-10T08:35:18.878Z,20.50
2019-06-10T08:38:12.424Z,20.65
2019-06-10T08:41:04.586Z,20.79
2019-06-10T08:43:56.490Z,20.84
2019-06-10T08:46:48.684Z,20.90
2019-06-10T08:49:44.230Z,20.90
2019-06-10T08:52:50.561Z,21.11
2019-06-10T08:55:28.870Z,21.09
2019-06-10T08:58:23.105Z,21.17
2019-06-10T09:01:15.116Z,21.21
2019-06-10T09:04:07.278Z,21.39
2019-06-10T09:06:59.053Z,21.22
2019-06-10T09:09:54.002Z,21.23
2019-06-10T09:12:47.974Z,21.23
2019-06-10T09:15:39.168Z,21.25
2019-06-10T09:18:33.437Z,21.60
2019-06-10T09:21:24.541Z,21.60
2019-06-10T09:24:16.792Z,21.55
2019-06-10T09:27:09.095Z,21.68
2019-06-10T09:30:02.963Z,21.74
2019-06-10T09:32:56.859Z,21.79
2019-06-10T09:35:50.775Z,21.96
2019-06-10T09:38:46.722Z,22.31
2019-06-10T09:41:41.188Z,22.43
2019-06-10T09:44:30.253Z,22.06
2019-06-10T09:47:22.716Z,22.04
2019-06-10T09:50:14.996Z,22.26
2019-06-10T09:53:06.591Z,22.26
2019-06-10T09:55:58.326Z,22.68
2019-06-10T09:58:52.753Z,22.95
2019-06-10T10:01:48.349Z,22.95
2019-06-10T10:04:38.364Z,23.00
2019-06-10T10:07:32.560Z,23.00
2019-06-10T10:10:27.656Z,23.00
2019-06-10T10:13:22.386Z,23.21
2019-06-10T10:16:14.214Z,23.30
2019-06-10T10:19:05.940Z,23.30
2019-06-10T10:21:58.681Z,23.24
2019-06-10T10:24:52.069Z,23.49
2019-06-10T10:27:48.873Z,23.49
2019-06-10T10:30:38.782Z,23.60
2019-06-10T10:33:33.327Z,23.56
2019-06-10T10:36:25.147Z,23.78
2019-06-10T10:39:19.067Z,23.78
2019-06-10T10:42:12.607Z,23.91
2019-06-10T10:45:07.439Z,23.80
2019-06-10T10:47:59.590Z,24.09
2019-06-10T10:50:55.511Z,24.09
2019-06-10T10:53:50.512Z,24.06
2019-06-10T10:56:38.475Z,24.06
2019-06-10T10:59:33.078Z,24.11
2019-06-10T11:02:24.267Z,24.33
2019-06-10T11:05:33.882Z,24.33
2019-06-10T11:08:25.464Z,24.47
2019-06-10T11:11:17.543Z,24.71
2019-06-10T11:14:09.696Z,24.71
2019-06-10T11:17:02.913Z,24.74
2019-06-10T11:19:55.948Z,24.86
2019-06-10T11:22:48.038Z,25.01
2019-06-10T11:25:40.374Z,25.01
2019-06-10T11:28:32.365Z,24.78
2019-06-10T11:31:24.344Z,24.82
2019-06-10T11:34:19.650Z,24.95
2019-06-10T11:37:12.300Z,24.95
2019-06-10T11:40:06.248Z,25.47
2019-06-10T11:42:59.815Z,25.70
2019-06-10T11:45:58.922Z,25.53
2019-06-10T11:48:46.997Z,25.53
2019-06-10T11:51:39.287Z,25.69
2019-06-10T11:54:34.001Z,25.74
2019-06-10T11:57:24.963Z,25.37
2019-06-10T12:00:17.549Z,25.71
2019-06-10T12:03:09.314Z,25.87
2019-06-10T12:06:05.241Z,25.75
2019-06-10T12:08:58.486Z,26.16
2019-06-10T12:11:49.150Z,26.16
2019-06-10T12:14:43.174Z,26.55
2019-06-10T12:17:47.099Z,26.54
2019-06-10T12:20:28.626Z,26.54
2019-06-10T12:23:22.135Z,26.67
2019-06-10T12:26:14.167Z,26.88
2019-06-10T12:29:06.295Z,27.08
2019-06-10T12:32:02.837Z,27.38
2019-06-10T12:34:53.249Z,27.25
2019-06-10T12:37:45.608Z,26.73
2019-06-10T12:40:37.979Z,27.31
2019-06-10T12:43:32.425Z,27.41
2019-06-10T12:46:23.414Z,27.41
2019-06-10T12:49:18.393Z,27.69
2019-06-10T12:52:09.687Z,27.84
2019-06-10T12:55:02.373Z,28.01
2019-06-10T12:57:56.072Z,27.93
2019-06-10T13:00:47.849Z,28.00
2019-06-10T13:03:39.833Z,28.31
2019-06-10T13:06:32.514Z,28.31
2019-06-10T13:09:24.549Z,28.22
2019-06-10T13:12:16.539Z,28.18
2019-06-10T13:15:08.910Z,28.18
2019-06-10T13:18:05.768Z,28.28
2019-06-10T13:20:56.330Z,28.25
2019-06-10T13:23:48.566Z,28.25
2019-06-10T13:26:42.982Z,28.14
2019-06-10T13:29:34.422Z,28.26
2019-06-10T13:32:26.424Z,28.26
2019-06-10T13:35:18.422Z,28.42
2019-06-10T13:38:10.699Z,28.23
2019-06-10T13:41:04.348Z,28.47
2019-06-10T13:43:57.619Z,28.36
2019-06-10T13:46:49.914Z,28.01
2019-06-10T13:49:42.843Z,27.68
2019-06-10T13:52:34.840Z,27.68
2019-06-10T13:55:27.082Z,27.78
2019-06-10T13:58:18.862Z,27.78
2019-06-10T14:01:19.762Z,27.95
2019-06-10T14:04:13.404Z,27.95
2019-06-10T14:06:58.468Z,27.85
2019-06-10T14:09:50.548Z,27.73
2019-06-10T14:12:43.263Z,27.82
2019-06-10T14:15:36.203Z,28.00
2019-06-10T14:18:28.338Z,28.34
2019-06-10T14:21:23.478Z,28.34
2019-06-10T14:24:16.124Z,29.06
2019-06-10T14:27:09.217Z,29.65
2019-06-10T14:30:04.650Z,29.84
2019-06-10T14:32:56.525Z,29.78
2019-06-10T14:35:48.349Z,29.68
2019-06-10T14:38:42.074Z,29.68
2019-06-10T14:41:34.029Z,29.94
2019-06-10T14:44:26.057Z,29.83
2019-06-10T14:47:17.865Z,29.67
2019-06-10T14:50:13.212Z,29.50
2019-06-10T14:53:04.813Z,29.68
2019-06-10T14:55:57.052Z,29.68
2019-06-10T14:58:48.986Z,29.73
2019-06-10T15:01:42.662Z,29.56
2019-06-10T15:04:34.992Z,29.76
2019-06-10T15:07:27.008Z,29.76
2019-06-10T15:10:19.934Z,30.01
2019-06-10T15:13:13.882Z,30.01
2019-06-10T15:16:05.685Z,29.89
2019-06-10T15:19:10.937Z,30.68
2019-06-10T15:21:52.377Z,31.04
2019-06-10T15:24:44.454Z,31.04
2019-06-10T15:27:36.232Z,30.89
2019-06-10T15:30:31.259Z,30.89
2019-06-10T15:33:23.608Z,30.20
2019-06-10T15:36:17.382Z,29.13
2019-06-10T15:39:09.179Z,28.88
2019-06-10T15:42:02.846Z,28.73
2019-06-10T15:44:56.023Z,28.73
2019-06-10T15:47:47.999Z,28.66
2019-06-10T15:50:40.053Z,29.33
2019-06-10T15:53:32.993Z,29.33
2019-06-10T15:56:38.716Z,29.06
2019-06-10T15:59:19.851Z,29.06
2019-06-10T16:02:14.271Z,28.58
2019-06-10T16:05:05.971Z,28.58
2019-06-10T16:07:58.196Z,28.48
2019-06-10T16:10:52.651Z,28.48
2019-06-10T16:13:43.752Z,28.61
2019-06-10T16:16:35.701Z,28.26
2019-06-10T16:19:27.797Z,27.99
2019-06-10T16:22:19.902Z,27.99
2019-06-10T16:25:12.744Z,28.04
2019-06-10T16:28:05.714Z,27.71
2019-06-10T16:30:57.940Z,27.71
2019-06-10T16:33:52.553Z,27.46
2019-06-10T16:36:43.943Z,27.46
2019-06-10T16:39:35.742Z,27.48
2019-06-10T16:42:27.698Z,26.94
2019-06-10T16:45:22.797Z,26.74
2019-06-10T16:48:13.490Z,26.74
2019-06-10T16:51:05.790Z,26.55
2019-06-10T16:53:58.227Z,26.13
2019-06-10T16:56:52.263Z,26.15
2019-06-10T16:59:44.838Z,26.02
2019-06-10T17:02:36.887Z,26.01
2019-06-10T17:05:30.476Z,25.85
2019-06-10T17:08:26.477Z,25.85
2019-06-10T17:11:18.773Z,25.77
2019-06-10T17:14:12.599Z,25.40
2019-06-10T17:17:05.281Z,25.42
2019-06-10T17:19:57.353Z,25.49
2019-06-10T17:22:49.394Z,25.33
2019-06-10T17:25:42.811Z,25.33
2019-06-10T17:28:36.931Z,25.19
2019-06-10T17:31:30.867Z,25.19
2019-06-10T17:34:24.571Z,24.74
2019-06-10T17:37:15.947Z,24.75
2019-06-10T17:40:08.051Z,24.92
2019-06-10T17:43:02.276Z,24.92
2019-06-10T17:45:54.130Z,24.77
2019-06-10T17:48:46.215Z,24.83
2019-06-10T17:51:38.146Z,24.83
2019-06-10T17:54:30.372Z,24.92
2019-06-10T17:57:23.595Z,24.94
2019-06-10T18:00:16.373Z,24.88
2019-06-10T18:03:08.070Z,24.88
2019-06-10T18:06:02.627Z,25.10
2019-06-10T18:08:53.486Z,24.92
2019-06-10T18:11:45.305Z,25.07
2019-06-10T18:14:37.367Z,25.07
2019-06-10T18:17:30.436Z,24.68
2019-06-10T18:20:24.347Z,24.79
2019-06-10T18:23:16.210Z,24.69
2019-06-10T18:26:08.454Z,24.31
2019-06-10T18:29:05.990Z,24.09
2019-06-10T18:31:54.332Z,24.09
2019-06-10T18:34:46.245Z,24.44
2019-06-10T18:37:39.135Z,24.38
2019-06-10T18:40:31.616Z,24.26
2019-06-10T18:43:23.941Z,23.97
2019-06-10T18:46:15.790Z,23.25
2019-06-10T18:49:07.709Z,22.91
2019-06-10T18:51:59.691Z,22.79
2019-06-10T18:54:52.882Z,22.79
2019-06-10T18:57:44.920Z,23.65
2019-06-10T19:00:54.526Z,23.86
2019-06-10T19:03:30.550Z,23.86
2019-06-10T19:06:23.222Z,24.00
2019-06-10T19:09:15.410Z,23.89
2019-06-10T19:12:07.601Z,23.89
2019-06-10T19:14:59.562Z,23.91
2019-06-10T19:17:53.600Z,23.74
2019-06-10T19:20:45.593Z,23.74
2019-06-10T19:23:38.215Z,23.63
2019-06-10T19:26:33.997Z,23.63
2019-06-10T19:29:33.749Z,23.28
2019-06-10T19:32:19.212Z,23.28
2019-06-10T19:35:13.144Z,23.50
2019-06-10T19:38:05.427Z,23.32
2019-06-10T19:40:57.198Z,22.89
2019-06-10T19:43:49.489Z,23.14
2019-06-10T19:46:42.999Z,23.14
2019-06-10T19:49:35.429Z,23.20
2019-06-10T19:52:28.357Z,22.85
2019-06-10T19:55:23.205Z,22.74
2019-06-10T19:58:14.549Z,22.78
2019-06-10T20:01:06.285Z,22.78
2019-06-10T20:03:58.274Z,22.92
2019-06-10T20:06:51.578Z,22.54
2019-06-10T20:09:46.147Z,22.54
2019-06-10T20:12:38.442Z,23.04
2019-06-10T20:15:32.696Z,23.04
2019-06-10T20:18:24.839Z,22.40
2019-06-10T20:21:17.029Z,22.40
2019-06-10T20:24:09.099Z,22.77
2019-06-10T20:27:03.059Z,22.77
2019-06-10T20:30:07.663Z,22.90
2019-06-10T20:32:51.886Z,22.90
2019-06-10T20:35:43.866Z,22.57
2019-06-10T20:38:35.978Z,22.44
2019-06-10T20:41:27.681Z,22.57
2019-06-10T20:44:22.175Z,22.67
2019-06-10T20:47:14.287Z,22.67
2019-06-10T20:50:07.456Z,22.68
2019-06-10T20:53:11.937Z,22.57
2019-06-10T20:55:57.446Z,22.62
2019-06-10T20:58:48.370Z,22.62
2019-06-10T21:01:43.780Z,22.56
2019-06-10T21:04:35.188Z,22.56
2019-06-10T21:07:27.089Z,22.16
2019-06-10T21:10:22.384Z,22.16
2019-06-10T21:13:14.658Z,21.21
2019-06-10T21:16:06.780Z,21.21
2019-06-10T21:18:58.638Z,22.18
2019-06-10T21:21:54.286Z,22.16
2019-06-10T21:24:44.514Z,21.86
2019-06-10T21:27:36.177Z,21.86
2019-06-10T21:30:38.436Z,21.68
2019-06-10T21:33:23.447Z,21.36
2019-06-10T21:36:15.747Z,21.36
2019-06-10T21:39:07.818Z,21.87
2019-06-10T21:42:02.112Z,21.87
2019-06-10T21:44:53.440Z,22.36
2019-06-10T21:47:45.916Z,21.99
2019-06-10T21:50:39.034Z,21.36
2019-06-10T21:53:31.083Z,21.54
2019-06-10T21:56:23.297Z,21.54
2019-06-10T21:59:15.170Z,22.08
2019-06-10T22:02:07.206Z,21.95
2019-06-10T22:04:59.019Z,21.95
2019-06-10T22:07:54.946Z,22.40
2019-06-10T22:10:45.871Z,22.40
2019-06-10T22:13:59.092Z,22.15
2019-06-10T22:16:53.371Z,22.15
2019-06-10T22:19:46.486Z,22.43
2019-06-10T22:22:38.914Z,22.48
2019-06-10T22:25:32.870Z,22.48
2019-06-10T22:28:24.557Z,22.40
2019-06-10T22:31:22.870Z,22.55
2019-06-10T22:34:12.595Z,22.60
2019-06-10T22:37:04.243Z,22.62
2019-06-10T22:39:57.826Z,22.62
2019-06-10T22:42:49.612Z,22.55
2019-06-10T22:45:42.369Z,22.49
2019-06-10T22:48:34.387Z,22.49
2019-06-10T22:51:26.572Z,22.48
2019-06-10T22:54:19.092Z,21.93
2019-06-10T22:57:12.982Z,22.05
2019-06-10T23:00:08.769Z,22.05
2019-06-10T23:03:02.773Z,22.21
2019-06-10T23:05:54.612Z,22.22
2019-06-10T23:08:48.031Z,22.38
2019-06-10T23:11:42.274Z,22.38
2019-06-10T23:14:33.864Z,22.21
2019-06-10T23:17:25.708Z,22.34
2019-06-10T23:20:17.825Z,22.43
2019-06-10T23:23:12.479Z,22.52
2019-06-10T23:26:03.268Z,22.52
2019-06-10T23:28:56.046Z,22.36
2019-06-10T23:31:54.464Z,22.17
2019-06-10T23:34:43.711Z,22.17
2019-06-10T23:37:36.305Z,22.12
2019-06-10T23:40:28.608Z,22.12
2019-06-10T23:43:22.546Z,22.34
2019-06-10T23:46:14.543Z,22.43
2019-06-10T23:49:06.708Z,22.43
2019-06-10T23:52:00.044Z,22.12
2019-06-10T23:54:54.364Z,22.12
2019-06-10T23:57:46.284Z,22.24
